createdAt,value
2022-07-29T00:02:29.344Z,1.63
2022-07-29T00:04:56.190Z,1.90
2022-07-29T00:07:22.809Z,2.05
2022-07-29T00:09:51.931Z,2.15
2022-07-29T00:12:25.370Z,1.92
2022-07-29T00:14:56.957Z,1.92
2022-07-29T00:19:50.980Z,1.80
2022-07-29T00:22:18.025Z,1.83
2022-07-29T00:24:44.719Z,1.92
2022-07-29T00:27:11.928Z,1.77
2022-07-29T00:29:38.601Z,2.00
2022-07-29T00:32:05.798Z,1.80
2022-07-29T00:34:51.209Z,1.88
2022-07-29T00:37:17.948Z,1.77
2022-07-29T00:39:44.694Z,1.85
2022-07-29T00:42:11.590Z,1.90
2022-07-29T00:44:42.130Z,2.30
2022-07-29T00:47:10.184Z,2.25
2022-07-29T00:49:37.604Z,2.10
2022-07-29T00:52:08.324Z,2.05
2022-07-29T00:54:39.178Z,2.40
2022-07-29T00:57:11.014Z,2.30
2022-07-29T00:59:37.775Z,2.20
2022-07-29T01:02:04.705Z,2.30
2022-07-29T01:04:32.079Z,2.58
2022-07-29T01:06:59.626Z,2.10
2022-07-29T01:09:42.074Z,1.80
2022-07-29T01:12:27.212Z,1.55
2022-07-29T01:14:55.544Z,2.10
2022-07-29T01:17:28.007Z,1.85
2022-07-29T01:20:06.913Z,2.10
2022-07-29T01:22:52.412Z,2.08
2022-07-29T01:26:21.004Z,2.10
2022-07-29T01:29:16.949Z,2.28
2022-07-29T01:32:01.102Z,2.35
2022-07-29T01:34:42.804Z,2.40
2022-07-29T01:37:17.448Z,2.65
2022-07-29T01:39:45.503Z,2.20
2022-07-29T01:42:31.730Z,2.25
2022-07-29T01:45:03.730Z,2.50
2022-07-29T01:47:38.651Z,2.35
2022-07-29T01:50:10.088Z,2.30
2022-07-29T01:52:53.871Z,2.28
2022-07-29T01:55:23.595Z,2.25
2022-07-29T01:57:50.703Z,2.65
2022-07-29T02:00:18.230Z,2.47
2022-07-29T02:02:47.095Z,2.50
2022-07-29T02:05:17.340Z,2.30
2022-07-29T02:10:12.254Z,2.72
2022-07-29T02:12:40.230Z,2.60
2022-07-29T02:15:07.678Z,2.75
2022-07-29T02:17:43.708Z,2.47
2022-07-29T02:20:10.782Z,2.03
2022-07-29T02:22:39.722Z,2.10
2022-07-29T02:25:08.245Z,1.73
2022-07-29T02:27:41.707Z,2.00
2022-07-29T02:30:09.163Z,1.90
2022-07-29T02:32:36.880Z,2.22
2022-07-29T02:35:04.314Z,1.90
2022-07-29T02:37:32.334Z,2.10
2022-07-29T02:39:59.139Z,2.35
2022-07-29T02:42:27.743Z,2.00
2022-07-29T02:44:55.054Z,1.80
2022-07-29T02:47:43.942Z,2.13
2022-07-29T02:50:15.123Z,1.90
2022-07-29T02:52:48.623Z,2.25
2022-07-29T02:55:15.189Z,2.33
2022-07-29T02:57:54.866Z,2.08
2022-07-29T03:02:52.320Z,2.25
2022-07-29T03:05:20.942Z,2.10
2022-07-29T03:07:52.063Z,1.70
2022-07-29T03:10:19.358Z,2.20
2022-07-29T03:12:46.507Z,2.38
2022-07-29T03:15:13.564Z,2.20
2022-07-29T03:17:40.592Z,1.95
2022-07-29T03:20:08.786Z,1.88
2022-07-29T03:22:47.965Z,2.17
2022-07-29T03:25:16.416Z,2.28
2022-07-29T03:27:43.645Z,2.97
2022-07-29T03:30:11.492Z,2.65
2022-07-29T03:32:38.400Z,2.47
2022-07-29T03:35:07.539Z,2.55
2022-07-29T03:37:34.573Z,2.25
2022-07-29T03:40:03.107Z,2.45
2022-07-29T03:42:34.492Z,2.97
2022-07-29T03:45:04.558Z,2.67
2022-07-29T03:47:38.569Z,2.78
2022-07-29T03:50:19.130Z,2.33
2022-07-29T03:52:46.450Z,2.95
2022-07-29T03:55:13.154Z,2.80
2022-07-29T03:57:41.085Z,3.03
2022-07-29T04:00:08.391Z,2.38
2022-07-29T04:02:35.615Z,2.45
2022-07-29T04:05:02.276Z,2.35
2022-07-29T04:07:29.058Z,2.78
2022-07-29T04:09:55.832Z,2.70
2022-07-29T04:12:22.774Z,2.25
2022-07-29T04:14:49.657Z,1.90
2022-07-29T04:17:16.287Z,2.40
2022-07-29T04:19:43.207Z,2.30
2022-07-29T04:22:10.169Z,2.33
2022-07-29T04:24:36.849Z,2.28
2022-07-29T04:27:03.635Z,2.25
2022-07-29T04:29:30.361Z,2.60
2022-07-29T04:31:56.983Z,2.53
2022-07-29T04:34:23.609Z,2.88
2022-07-29T04:36:56.134Z,2.70
2022-07-29T04:39:23.409Z,2.97
2022-07-29T04:41:51.216Z,2.92
2022-07-29T04:44:19.742Z,2.80
2022-07-29T04:46:46.713Z,2.80
2022-07-29T04:49:14.190Z,2.78
2022-07-29T04:51:41.048Z,2.95
2022-07-29T04:54:07.667Z,2.63
2022-07-29T04:56:34.596Z,2.55
2022-07-29T04:59:01.247Z,2.55
2022-07-29T05:01:28.263Z,2.28
2022-07-29T05:04:00.114Z,2.50
2022-07-29T05:06:27.200Z,2.60
2022-07-29T05:08:53.877Z,2.60
2022-07-29T05:11:22.389Z,2.97
2022-07-29T05:13:50.921Z,2.40
2022-07-29T05:16:17.712Z,2.47
2022-07-29T05:18:44.450Z,2.80
2022-07-29T05:21:11.197Z,2.65
2022-07-29T05:23:37.885Z,2.72
2022-07-29T05:26:04.639Z,3.15
2022-07-29T05:28:35.873Z,2.67
2022-07-29T05:31:02.834Z,2.00
2022-07-29T05:33:35.198Z,2.45
2022-07-29T05:36:03.326Z,2.15
2022-07-29T05:38:30.212Z,2.47
2022-07-29T05:41:00.480Z,2.20
2022-07-29T05:45:54.311Z,1.90
2022-07-29T05:48:21.115Z,1.92
2022-07-29T05:50:47.780Z,1.98
2022-07-29T05:53:20.124Z,2.15
2022-07-29T05:55:48.371Z,1.77
2022-07-29T05:58:15.166Z,2.03
2022-07-29T06:00:42.022Z,1.85
2022-07-29T06:03:08.928Z,1.80
2022-07-29T06:05:35.587Z,1.75
2022-07-29T06:08:02.594Z,1.80
2022-07-29T06:10:29.435Z,1.88
2022-07-29T06:12:56.098Z,1.95
2022-07-29T06:15:22.792Z,1.70
2022-07-29T06:17:59.293Z,1.75
2022-07-29T06:20:31.709Z,1.73
2022-07-29T06:22:58.935Z,1.60
2022-07-29T06:25:25.732Z,1.98
2022-07-29T06:27:53.193Z,1.88
2022-07-29T06:30:19.996Z,1.92
2022-07-29T06:32:47.093Z,1.90
2022-07-29T06:35:39.166Z,2.10
2022-07-29T06:38:00.363Z,2.10
2022-07-29T06:40:46.195Z,1.73
2022-07-29T06:43:13.043Z,1.50
2022-07-29T06:45:42.171Z,1.60
2022-07-29T06:48:09.912Z,1.90
2022-07-29T06:50:36.527Z,1.70
2022-07-29T06:53:04.316Z,1.80
2022-07-29T06:55:30.946Z,1.70
2022-07-29T06:57:57.674Z,1.55
2022-07-29T07:00:24.765Z,1.77
2022-07-29T07:02:51.564Z,1.70
2022-07-29T07:05:18.343Z,1.70
2022-07-29T07:07:44.994Z,1.80
2022-07-29T07:10:11.648Z,2.03
2022-07-29T07:12:38.489Z,1.70
2022-07-29T07:15:05.692Z,1.90
2022-07-29T07:17:32.345Z,1.80
2022-07-29T07:19:58.964Z,2.10
2022-07-29T07:22:25.885Z,1.90
2022-07-29T07:24:52.550Z,1.73
2022-07-29T07:27:19.523Z,1.90
2022-07-29T07:29:46.164Z,2.17
2022-07-29T07:32:14.511Z,1.98
2022-07-29T07:34:41.382Z,1.92
2022-07-29T07:37:08.154Z,1.77
2022-07-29T07:39:34.954Z,1.80
2022-07-29T07:42:01.790Z,1.80
2022-07-29T07:44:28.473Z,1.85
2022-07-29T07:46:55.272Z,1.75
2022-07-29T07:49:22.278Z,1.70
2022-07-29T07:51:50.511Z,1.90
2022-07-29T07:54:18.920Z,1.80
2022-07-29T07:56:50.003Z,1.90
2022-07-29T07:59:20.221Z,1.70
2022-07-29T08:01:54.941Z,2.00
2022-07-29T08:04:27.499Z,2.00
2022-07-29T08:06:58.155Z,2.20
2022-07-29T08:09:30.667Z,2.00
2022-07-29T08:11:58.689Z,1.73
2022-07-29T08:14:25.357Z,2.20
2022-07-29T08:16:52.503Z,2.15
2022-07-29T08:19:19.452Z,2.20
2022-07-29T08:21:46.477Z,2.30
2022-07-29T08:24:31.855Z,2.05
2022-07-29T08:26:58.556Z,1.90
2022-07-29T08:29:25.408Z,1.90
2022-07-29T08:31:52.340Z,2.00
2022-07-29T08:34:19.272Z,1.92
2022-07-29T08:36:54.409Z,1.88
2022-07-29T08:39:21.044Z,1.88
2022-07-29T08:41:57.262Z,1.85
2022-07-29T08:44:31.161Z,1.95
2022-07-29T08:46:58.298Z,2.30
2022-07-29T08:49:25.508Z,1.67
2022-07-29T08:51:52.580Z,2.45
2022-07-29T08:54:19.986Z,1.90
2022-07-29T08:56:50.613Z,1.80
2022-07-29T08:59:21.671Z,2.20
2022-07-29T09:01:52.454Z,1.85
2022-07-29T09:04:20.224Z,1.73
2022-07-29T09:06:49.786Z,2.13
2022-07-29T09:09:16.552Z,1.85
2022-07-29T09:11:43.430Z,2.03
2022-07-29T09:14:13.051Z,1.98
2022-07-29T09:16:53.454Z,2.05
2022-07-29T09:19:21.336Z,2.30
2022-07-29T09:22:00.258Z,2.15
2022-07-29T09:24:49.019Z,2.37
2022-07-29T09:27:23.997Z,2.08
2022-07-29T09:30:13.649Z,2.13
2022-07-29T09:33:02.087Z,2.20
2022-07-29T09:35:29.722Z,2.33
2022-07-29T09:37:56.727Z,2.20
2022-07-29T09:40:27.571Z,2.60
2022-07-29T09:42:57.899Z,2.17
2022-07-29T09:45:30.318Z,2.30
2022-07-29T09:48:00.089Z,2.03
2022-07-29T09:53:39.164Z,2.30
2022-07-29T09:56:06.207Z,2.20
2022-07-29T09:58:36.328Z,2.20
2022-07-29T10:01:04.209Z,2.55
2022-07-29T10:03:31.596Z,2.35
2022-07-29T10:06:11.493Z,1.92
2022-07-29T10:08:38.652Z,2.40
2022-07-29T10:11:18.459Z,2.25
2022-07-29T10:16:14.121Z,2.10
2022-07-29T10:18:42.583Z,2.15
2022-07-29T10:21:10.236Z,2.00
2022-07-29T10:23:46.150Z,2.40
2022-07-29T10:26:15.447Z,2.00
2022-07-29T10:28:42.141Z,1.80
2022-07-29T10:31:20.742Z,1.63
2022-07-29T10:33:56.967Z,1.90
2022-07-29T10:36:32.587Z,1.88
2022-07-29T10:39:15.502Z,1.90
2022-07-29T10:42:02.299Z,1.77
2022-07-29T10:44:30.902Z,1.67
2022-07-29T10:46:58.791Z,2.00
2022-07-29T10:49:30.327Z,1.60
2022-07-29T10:52:05.959Z,1.63
2022-07-29T10:54:49.200Z,1.65
2022-07-29T10:57:25.662Z,2.10
2022-07-29T11:00:26.880Z,1.60
2022-07-29T11:02:56.333Z,1.40
2022-07-29T11:05:24.863Z,1.48
2022-07-29T11:08:19.623Z,1.60
2022-07-29T11:10:49.545Z,1.60
2022-07-29T11:13:44.319Z,1.65
2022-07-29T11:16:11.471Z,1.55
2022-07-29T11:19:14.331Z,1.35
2022-07-29T11:21:54.045Z,1.60
2022-07-29T11:24:32.358Z,1.67
2022-07-29T11:27:21.026Z,1.50
2022-07-29T11:29:56.322Z,1.77
2022-07-29T11:32:25.534Z,1.65
2022-07-29T11:35:37.230Z,1.73
2022-07-29T11:38:29.023Z,1.90
2022-07-29T11:43:52.481Z,1.95
2022-07-29T11:46:51.162Z,2.30
2022-07-29T11:49:31.955Z,1.65
2022-07-29T11:52:03.947Z,1.90
2022-07-29T11:57:22.074Z,1.88
2022-07-29T11:59:48.806Z,1.90
2022-07-29T12:02:37.111Z,1.73
2022-07-29T12:05:10.374Z,1.52
2022-07-29T12:07:38.744Z,1.40
2022-07-29T12:10:11.279Z,1.30
2022-07-29T12:12:39.625Z,1.90
2022-07-29T12:15:14.542Z,1.90
2022-07-29T12:17:41.972Z,1.70
2022-07-29T12:20:08.873Z,2.10
2022-07-29T12:22:42.061Z,1.73
2022-07-29T12:25:32.554Z,1.75
2022-07-29T12:28:05.383Z,1.38
2022-07-29T12:30:41.560Z,1.65
2022-07-29T12:33:30.546Z,1.88
2022-07-29T12:36:07.200Z,1.80
2022-07-29T12:38:38.264Z,1.70
2022-07-29T12:41:05.225Z,1.83
2022-07-29T12:43:32.598Z,1.80
2022-07-29T12:46:13.463Z,1.50
2022-07-29T12:48:42.120Z,1.60
2022-07-29T12:51:10.158Z,1.58
2022-07-29T12:53:37.455Z,1.60
2022-07-29T12:56:15.513Z,1.50
2022-07-29T12:58:52.773Z,1.30
2022-07-29T13:01:21.966Z,1.83
2022-07-29T13:04:01.566Z,1.77
2022-07-29T13:06:42.560Z,1.67
2022-07-29T13:09:18.313Z,1.40
2022-07-29T13:11:48.817Z,1.50
2022-07-29T13:14:40.894Z,1.48
2022-07-29T13:17:16.608Z,1.35
2022-07-29T13:19:51.291Z,1.40
2022-07-29T13:22:20.684Z,1.55
2022-07-29T13:24:47.429Z,1.60
2022-07-29T13:27:29.414Z,1.42
2022-07-29T13:29:58.445Z,1.40
2022-07-29T13:32:29.590Z,1.53
2022-07-29T13:34:57.465Z,1.27
2022-07-29T13:37:24.067Z,1.40
2022-07-29T13:39:52.978Z,1.10
2022-07-29T13:42:20.226Z,1.25
2022-07-29T13:44:46.890Z,1.50
2022-07-29T13:47:13.988Z,1.10
2022-07-29T13:49:41.282Z,1.50
2022-07-29T13:52:08.424Z,1.17
2022-07-29T13:54:42.016Z,1.67
2022-07-29T13:57:09.795Z,1.55
2022-07-29T13:59:36.366Z,1.42
2022-07-29T14:02:04.119Z,1.38
2022-07-29T14:04:30.952Z,1.50
2022-07-29T14:06:57.819Z,1.38
2022-07-29T14:09:24.536Z,1.40
2022-07-29T14:11:52.244Z,1.25
2022-07-29T14:14:19.054Z,1.65
2022-07-29T14:16:48.956Z,1.50
2022-07-29T14:19:18.615Z,1.55
2022-07-29T14:21:45.726Z,1.35
2022-07-29T14:24:17.746Z,1.27
2022-07-29T14:26:46.402Z,1.50
2022-07-29T14:29:13.421Z,1.60
2022-07-29T14:31:40.126Z,1.67
2022-07-29T14:34:06.725Z,1.35
2022-07-29T14:36:33.383Z,1.20
2022-07-29T14:38:59.958Z,1.30
2022-07-29T14:41:29.041Z,1.35
2022-07-29T14:43:55.851Z,1.40
2022-07-29T14:46:22.555Z,1.38
2022-07-29T14:48:49.563Z,1.35
2022-07-29T14:51:16.459Z,1.52
2022-07-29T14:53:43.051Z,1.58
2022-07-29T14:56:34.305Z,1.48
2022-07-29T14:58:59.689Z,1.45
2022-07-29T15:01:26.341Z,1.40
2022-07-29T15:03:55.753Z,1.67
2022-07-29T15:06:26.202Z,1.60
2022-07-29T15:08:53.028Z,1.27
2022-07-29T15:11:19.790Z,1.67
2022-07-29T15:13:46.375Z,1.40
2022-07-29T15:16:13.027Z,1.60
2022-07-29T15:18:39.741Z,1.73
2022-07-29T15:21:07.828Z,1.30
2022-07-29T15:23:37.327Z,1.50
2022-07-29T15:26:05.329Z,1.60
2022-07-29T15:28:32.210Z,1.90
2022-07-29T15:30:59.362Z,1.50
2022-07-29T15:33:26.543Z,1.50
2022-07-29T15:35:53.190Z,1.50
2022-07-29T15:38:19.859Z,1.55
2022-07-29T15:40:55.346Z,1.48
2022-07-29T15:43:22.319Z,1.65
2022-07-29T15:46:07.705Z,1.60
2022-07-29T15:48:34.684Z,1.58
2022-07-29T15:51:01.325Z,1.95
2022-07-29T15:53:28.211Z,1.70
2022-07-29T15:55:55.099Z,1.90
2022-07-29T15:58:22.883Z,2.03
2022-07-29T16:00:49.818Z,1.80
2022-07-29T16:03:16.956Z,1.60
2022-07-29T16:05:44.116Z,1.60
2022-07-29T16:08:14.927Z,1.52
2022-07-29T16:10:41.596Z,1.75
2022-07-29T16:13:08.374Z,1.60
2022-07-29T16:15:35.706Z,1.50
2022-07-29T16:18:02.557Z,1.70
2022-07-29T16:20:30.185Z,1.63
2022-07-29T16:22:57.034Z,1.73
2022-07-29T16:25:43.910Z,1.55
2022-07-29T16:28:12.751Z,1.80
2022-07-29T16:30:39.454Z,1.90
2022-07-29T16:33:08.385Z,1.77
2022-07-29T16:35:39.070Z,2.03
2022-07-29T16:38:08.396Z,1.70
2022-07-29T16:40:35.139Z,1.83
2022-07-29T16:43:01.736Z,1.73
2022-07-29T16:45:31.559Z,1.88
2022-07-29T16:48:10.663Z,1.65
2022-07-29T16:50:38.859Z,1.75
2022-07-29T16:53:05.639Z,1.80
2022-07-29T16:55:32.805Z,1.90
2022-07-29T16:57:59.431Z,1.88
2022-07-29T17:00:27.232Z,2.20
2022-07-29T17:02:53.964Z,2.10
2022-07-29T17:05:20.664Z,1.70
2022-07-29T17:07:48.280Z,2.10
2022-07-29T17:10:14.924Z,1.83
2022-07-29T17:12:41.753Z,2.03
2022-07-29T17:15:10.664Z,2.10
2022-07-29T17:17:39.539Z,2.13
2022-07-29T17:20:21.738Z,6.68
2022-07-29T17:22:48.464Z,2.53
2022-07-29T17:25:20.937Z,2.17
2022-07-29T17:27:50.577Z,3.17
2022-07-29T17:30:18.169Z,2.40
2022-07-29T17:32:45.166Z,2.20
2022-07-29T17:35:30.623Z,2.47
2022-07-29T17:37:57.442Z,2.25
2022-07-29T17:40:24.626Z,2.03
2022-07-29T17:42:51.390Z,2.10
2022-07-29T17:45:18.144Z,2.05
2022-07-29T17:47:45.296Z,1.70
2022-07-29T17:50:12.561Z,1.75
2022-07-29T17:52:39.373Z,1.83
2022-07-29T17:55:07.758Z,2.00
2022-07-29T17:57:34.925Z,2.03
2022-07-29T18:00:01.555Z,2.20
2022-07-29T18:02:31.836Z,2.30
2022-07-29T18:05:01.939Z,2.70
2022-07-29T18:10:00.027Z,2.55
2022-07-29T18:12:27.548Z,2.97
2022-07-29T18:14:54.187Z,3.08
2022-07-29T18:17:21.223Z,2.58
2022-07-29T18:20:01.241Z,2.80
2022-07-29T18:22:27.992Z,2.88
2022-07-29T18:24:54.828Z,2.88
2022-07-29T18:27:21.469Z,2.65
2022-07-29T18:29:51.160Z,2.60
2022-07-29T18:32:18.064Z,2.60
2022-07-29T18:34:55.234Z,2.80
2022-07-29T18:38:00.199Z,2.92
2022-07-29T18:40:10.652Z,2.70
2022-07-29T18:42:41.239Z,2.78
2022-07-29T18:45:16.797Z,2.42
2022-07-29T18:47:48.948Z,2.63
2022-07-29T18:50:16.406Z,2.57
2022-07-29T18:52:43.090Z,2.97
2022-07-29T18:55:09.928Z,2.97
2022-07-29T18:57:54.834Z,2.90
2022-07-29T19:00:23.790Z,3.05
2022-07-29T19:02:50.699Z,2.88
2022-07-29T19:05:17.622Z,3.10
2022-07-29T19:07:44.318Z,2.78
2022-07-29T19:10:11.720Z,3.08
2022-07-29T19:12:38.623Z,3.10
2022-07-29T19:15:05.872Z,2.88
2022-07-29T19:17:32.515Z,2.70
2022-07-29T19:19:59.156Z,2.60
2022-07-29T19:22:26.316Z,2.80
2022-07-29T19:24:53.286Z,3.00
2022-07-29T19:27:21.283Z,3.10
2022-07-29T19:29:48.145Z,3.00
2022-07-29T19:32:24.805Z,2.80
2022-07-29T19:35:11.450Z,3.28
2022-07-29T19:37:38.475Z,2.70
2022-07-29T19:40:06.912Z,2.90
2022-07-29T19:42:33.747Z,3.10
2022-07-29T19:45:00.409Z,2.97
2022-07-29T19:47:27.062Z,2.92
2022-07-29T19:49:54.177Z,3.10
2022-07-29T19:52:21.239Z,2.80
2022-07-29T19:54:48.122Z,3.03
2022-07-29T19:57:14.807Z,2.80
2022-07-29T19:59:41.429Z,2.90
2022-07-29T20:02:10.992Z,2.88
2022-07-29T20:04:38.661Z,3.20
2022-07-29T20:07:06.760Z,3.25
2022-07-29T20:09:33.775Z,2.70
2022-07-29T20:12:00.768Z,2.85
2022-07-29T20:14:27.535Z,2.70
2022-07-29T20:16:54.282Z,3.15
2022-07-29T20:19:21.234Z,3.30
2022-07-29T20:21:48.011Z,3.42
2022-07-29T20:24:14.916Z,3.45
2022-07-29T20:26:41.723Z,2.83
2022-07-29T20:29:09.344Z,2.70
2022-07-29T20:31:36.059Z,3.15
2022-07-29T20:34:03.365Z,3.05
2022-07-29T20:36:30.143Z,3.20
2022-07-29T20:38:57.445Z,3.08
2022-07-29T20:41:24.090Z,3.20
2022-07-29T20:43:50.849Z,3.22
2022-07-29T20:46:18.095Z,3.20
2022-07-29T20:48:46.792Z,3.50
2022-07-29T20:51:14.199Z,3.55
2022-07-29T20:53:41.658Z,3.70
2022-07-29T20:56:08.638Z,3.70
2022-07-29T20:58:36.525Z,3.00
2022-07-29T21:01:03.464Z,2.90
2022-07-29T21:03:30.464Z,2.80
2022-07-29T21:05:57.408Z,2.80
2022-07-29T21:08:24.490Z,3.10
2022-07-29T21:10:51.231Z,3.17
2022-07-29T21:13:18.560Z,3.20
2022-07-29T21:15:49.186Z,3.50
2022-07-29T21:18:34.227Z,3.08
2022-07-29T21:21:01.139Z,3.08
2022-07-29T21:23:27.821Z,3.08
2022-07-29T21:25:55.214Z,3.08
2022-07-29T21:28:38.270Z,2.95
2022-07-29T21:31:07.218Z,3.10
2022-07-29T21:33:34.044Z,2.60
2022-07-29T21:38:48.458Z,2.85
2022-07-29T21:41:15.388Z,3.00
2022-07-29T21:43:42.437Z,3.25
2022-07-29T21:46:09.579Z,3.05
2022-07-29T21:48:36.253Z,3.30
2022-07-29T21:51:03.049Z,3.00
2022-07-29T21:53:30.755Z,3.30
2022-07-29T21:55:58.043Z,3.40
2022-07-29T21:58:25.960Z,2.80
2022-07-29T22:00:52.691Z,3.05
2022-07-29T22:03:19.546Z,3.10
2022-07-29T22:05:46.391Z,2.53
2022-07-29T22:08:13.469Z,2.97
2022-07-29T22:10:40.126Z,2.85
2022-07-29T22:13:06.770Z,2.90
2022-07-29T22:15:33.493Z,2.58
2022-07-29T22:18:00.349Z,2.75
2022-07-29T22:20:27.200Z,2.65
2022-07-29T22:22:54.086Z,2.67
2022-07-29T22:25:20.977Z,2.42
2022-07-29T22:27:47.927Z,2.83
2022-07-29T22:30:15.616Z,2.83
2022-07-29T22:32:42.347Z,2.90
2022-07-29T22:35:09.429Z,3.17
2022-07-29T22:37:36.678Z,2.97
2022-07-29T22:40:04.838Z,2.92
2022-07-29T22:42:31.540Z,3.15
2022-07-29T22:44:58.155Z,3.40
2022-07-29T22:47:45.796Z,3.00
2022-07-29T22:50:11.767Z,3.22
2022-07-29T22:52:38.472Z,2.97
2022-07-29T22:55:05.294Z,2.97
2022-07-29T22:57:31.926Z,3.10
2022-07-29T23:00:01.483Z,3.00
2022-07-29T23:02:28.620Z,3.10
2022-07-29T23:04:55.377Z,3.10
2022-07-29T23:07:22.516Z,3.22
2022-07-29T23:09:49.166Z,3.55
2022-07-29T23:12:15.751Z,3.25
2022-07-29T23:14:42.458Z,3.22
2022-07-29T23:17:09.201Z,3.08
2022-07-29T23:19:35.830Z,3.30
2022-07-29T23:22:02.456Z,3.40
2022-07-29T23:24:29.250Z,3.30
2022-07-29T23:26:55.847Z,3.00
2022-07-29T23:29:22.594Z,3.40
2022-07-29T23:31:49.248Z,3.03
2022-07-29T23:34:16.189Z,2.95
2022-07-29T23:36:42.879Z,3.40
2022-07-29T23:39:11.191Z,3.30
2022-07-29T23:41:37.962Z,3.50
2022-07-29T23:44:04.826Z,3.78
2022-07-29T23:46:33.792Z,3.85
2022-07-29T23:49:00.502Z,3.97
2022-07-29T23:51:29.038Z,4.03
2022-07-29T23:53:56.048Z,3.60
2022-07-29T23:56:23.115Z,3.58
2022-07-29T23:58:50.229Z,4.00
